首页
METAR-TAF:

METAR-TAF

机场 :

海參崴國際機場

海參崴, 俄罗斯

纬度: 43-07N, 经度: 131-56E, 海拔: 184米

当前天气观测

该预报发布于34分钟前的10:30 UTC
风速8节,风向西转西南
温度 -7°C
湿度 53%
气压 1026 hPa
能見度: 9000

METAR: UHWW 271030Z 25004MPS 9000 NSC M07/M15 Q1026 R25L/0///70 NOSIG RMK QFE769

时间: 21:04 (11:04 UTC)

预报

该预报发布于3小时和4分钟前的08:00 UTC
预报有效从27日的 09点(UTC)到 28日的 09点(UTC)
风速6节,风向西转西南
能見度: 5000
散云层高于3000英尺
从 28日的 0100点(UTC)
风速6节,风向
能见度10公里或以上
多云层高于2000英尺

TAF: UHWW 270800Z 2709/2809 24003MPS 5000 FU SCT030 FM280100 01003MPS 9999 BKN020

超过4000个机场的气象观测和天气预报(METAR&TAF报告)。

可查询的气象台以黄色和红色小点在地图上表示。

将鼠标移到小点上方,可查看气象台名称。

然后点击查看天气观测和预报。

如需切换地图:点击带黑十字的绿色按钮放大地图;点击带横线的绿色按钮缩小地图;或者点击绿色箭头查看邻近地区的地图。


METAR-TAF: